Time;durP1;ratioP1;P1;durP2;ratioP2;P2;SDS_P1;SDS_P2;PMS_P1;PMS_P2;Temp;Humidity;BMP_temperature;BMP_pressure;BME280_temperature;BME280_humidity;BME280_pressure;Samples;Min_cycle;Max_cycle;Signal;HPM_P1;HPM_P2
2022/05/18 00:00:05;;;;;;;13.48;8.10;;;18.10;99.90;;;;;;5033354;28;20108;-71
2022/05/18 00:02:31;;;;;;;11.05;7.28;;;18.10;99.90;;;;;;5033553;28;20033;-71
2022/05/18 00:04:56;;;;;;;12.25;7.53;;;18.10;99.90;;;;;;5032145;28;20037;-71
2022/05/18 00:07:22;;;;;;;13.07;7.45;;;18.10;99.90;;;;;;5033767;28;20041;-71
2022/05/18 00:09:49;;;;;;;10.55;8.27;;;18.10;99.90;;;;;;5032196;28;20052;-71
2022/05/18 00:12:14;;;;;;;10.70;5.97;;;18.00;99.90;;;;;;5015419;28;20116;-71
2022/05/18 00:14:40;;;;;;;15.10;7.95;;;18.00;99.90;;;;;;5015835;28;20124;-71
2022/05/18 00:17:06;;;;;;;13.45;6.72;;;17.90;99.90;;;;;;5032061;28;20492;-71
2022/05/18 00:19:33;;;;;;;11.73;6.88;;;18.00;99.90;;;;;;5033489;28;20543;-71
2022/05/18 00:21:58;;;;;;;10.93;6.53;;;17.90;99.90;;;;;;5015215;28;20061;-71
2022/05/18 00:24:24;;;;;;;10.13;6.60;;;17.90;99.90;;;;;;5032066;28;20115;-71
2022/05/18 00:26:50;;;;;;;9.85;6.93;;;17.90;99.90;;;;;;5015459;28;20052;-71
2022/05/18 00:29:16;;;;;;;12.75;6.40;;;17.90;99.90;;;;;;5031844;28;20042;-71
2022/05/18 00:31:42;;;;;;;7.95;6.22;;;17.80;99.90;;;;;;5031392;28;20137;-71
2022/05/18 00:34:09;;;;;;;13.05;6.55;;;17.80;99.90;;;;;;5033239;28;20148;-71
2022/05/18 00:36:35;;;;;;;12.02;6.90;;;17.80;99.90;;;;;;5031594;28;20464;-71
2022/05/18 00:39:01;;;;;;;9.88;6.13;;;17.80;99.90;;;;;;5031650;28;20133;-71
2022/05/18 00:41:27;;;;;;;9.50;5.60;;;17.70;99.90;;;;;;5031590;28;20128;-71
2022/05/18 00:43:54;;;;;;;14.35;6.53;;;17.70;99.90;;;;;;5032716;28;20117;-71
2022/05/18 00:46:21;;;;;;;10.38;6.15;;;17.70;99.90;;;;;;5032543;28;20044;-71
2022/05/18 00:48:47;;;;;;;9.27;6.18;;;17.70;99.90;;;;;;5031488;28;20045;-71
2022/05/18 00:51:24;;;;;;;10.48;5.97;;;17.70;99.90;;;;;;5031067;28;20038;-71
2022/05/18 00:53:55;;;;;;;8.60;6.57;;;17.70;99.90;;;;;;5031405;28;20041;-71
2022/05/18 00:56:33;;;;;;;11.35;6.85;;;17.60;99.90;;;;;;5031242;28;20045;-71
2022/05/18 00:59:08;;;;;;;11.90;6.35;;;17.60;99.90;;;;;;5031248;28;20049;-71
2022/05/18 01:01:34;;;;;;;9.30;6.68;;;17.60;99.90;;;;;;5030634;28;20038;-71
2022/05/18 01:04:02;;;;;;;14.68;7.30;;;17.60;99.90;;;;;;5032574;28;20044;-72
2022/05/18 01:06:37;;;;;;;11.13;6.50;;;17.60;99.90;;;;;;5032480;28;20584;-71
2022/05/18 01:09:21;;;;;;;8.85;6.68;;;17.50;99.90;;;;;;5032313;28;20072;-71
2022/05/18 01:11:47;;;;;;;8.82;6.25;;;17.50;99.90;;;;;;5030956;28;20384;-71
2022/05/18 01:14:38;;;;;;;10.75;5.80;;;17.50;99.90;;;;;;5030927;28;20076;-71
2022/05/18 01:17:04;;;;;;;14.35;7.43;;;17.50;99.90;;;;;;5029282;28;20050;-71
2022/05/18 01:19:37;;;;;;;9.75;5.50;;;17.40;99.90;;;;;;5030870;28;20048;-71
2022/05/18 01:22:21;;;;;;;9.32;5.40;;;17.40;99.90;;;;;;5030635;28;20029;-72
2022/05/18 01:24:53;;;;;;;10.77;5.53;;;17.40;99.90;;;;;;5014478;28;20423;-71
2022/05/18 01:27:18;;;;;;;12.20;6.07;;;17.50;99.90;;;;;;5014649;28;20053;-71
2022/05/18 01:29:44;;;;;;;9.25;5.75;;;17.50;99.90;;;;;;5031985;28;20693;-71
2022/05/18 01:32:15;;;;;;;9.82;6.40;;;17.40;99.90;;;;;;5031582;28;20037;-71
2022/05/18 01:34:42;;;;;;;10.15;6.68;;;17.40;99.90;;;;;;5013985;28;20587;-71
2022/05/18 01:37:09;;;;;;;8.52;5.00;;;17.40;99.90;;;;;;5030336;28;20091;-71
2022/05/18 01:39:51;;;;;;;11.63;5.22;;;17.40;99.90;;;;;;5030809;28;20495;-71
2022/05/18 01:42:39;;;;;;;7.93;5.70;;;17.40;99.90;;;;;;5031404;28;20048;-71
2022/05/18 01:45:05;;;;;;;8.05;5.10;;;17.40;99.90;;;;;;5030433;28;20042;-71
2022/05/18 01:47:36;;;;;;;9.73;6.13;;;17.30;99.90;;;;;;5030430;28;20037;-71
2022/05/18 01:50:05;;;;;;;6.32;4.80;;;17.30;99.90;;;;;;5030209;28;20380;-71
2022/05/18 01:52:32;;;;;;;6.47;5.38;;;17.30;99.90;;;;;;5031618;28;20107;-71
2022/05/18 01:54:58;;;;;;;11.35;5.63;;;17.30;99.90;;;;;;5031445;28;20083;-71
2022/05/18 01:57:24;;;;;;;8.35;5.07;;;17.30;99.90;;;;;;5031627;28;20041;-71
2022/05/18 01:59:49;;;;;;;9.75;5.60;;;17.30;99.90;;;;;;5031555;28;20515;-71
2022/05/18 02:02:15;;;;;;;8.38;5.07;;;17.30;99.90;;;;;;5031355;28;20056;-71
2022/05/18 02:04:42;;;;;;;10.80;5.72;;;17.30;99.90;;;;;;5031630;28;20038;-71
2022/05/18 02:07:08;;;;;;;6.15;5.18;;;17.30;99.90;;;;;;5031585;28;20049;-71
2022/05/18 02:09:34;;;;;;;8.10;4.85;;;17.20;99.90;;;;;;5030283;28;20081;-71
2022/05/18 02:12:00;;;;;;;6.93;5.18;;;17.20;99.90;;;;;;5029860;28;20495;-71
2022/05/18 02:14:26;;;;;;;7.57;5.55;;;17.20;99.90;;;;;;5033460;28;20034;-71
2022/05/18 02:16:52;;;;;;;12.43;6.15;;;17.10;99.90;;;;;;5034303;28;20041;-71
2022/05/18 02:19:18;;;;;;;11.88;5.65;;;17.20;99.90;;;;;;5035518;28;20045;-71
2022/05/18 02:21:44;;;;;;;9.15;5.38;;;17.20;99.90;;;;;;5034035;28;20052;-72
2022/05/18 02:24:10;;;;;;;8.75;4.75;;;17.10;99.90;;;;;;5034062;28;20038;-71
2022/05/18 02:26:36;;;;;;;8.00;5.72;;;17.10;99.90;;;;;;5035292;28;20095;-71
2022/05/18 02:29:03;;;;;;;9.05;5.30;;;17.10;99.90;;;;;;5035575;28;20045;-71
2022/05/18 02:31:28;;;;;;;10.63;5.72;;;17.10;99.90;;;;;;5035082;28;20038;-71
2022/05/18 02:33:54;;;;;;;10.18;5.63;;;17.10;99.90;;;;;;5035119;28;20044;-71
2022/05/18 02:36:19;;;;;;;8.95;5.93;;;17.10;99.90;;;;;;5033768;28;20081;-71
2022/05/18 02:38:45;;;;;;;9.80;6.47;;;17.10;99.90;;;;;;5035043;28;20112;-71
2022/05/18 02:41:11;;;;;;;11.95;7.05;;;17.00;99.90;;;;;;5033744;28;20041;-71
2022/05/18 02:43:38;;;;;;;9.10;6.20;;;17.00;99.90;;;;;;5034050;28;20507;-71
2022/05/18 02:46:10;;;;;;;9.60;5.90;;;17.00;99.90;;;;;;5033699;28;20041;-71
2022/05/18 02:48:36;;;;;;;7.50;5.88;;;17.00;99.90;;;;;;5033794;28;20491;-71
2022/05/18 02:51:02;;;;;;;10.68;5.53;;;17.00;99.90;;;;;;5034656;28;20449;-71
2022/05/18 02:53:28;;;;;;;10.18;5.25;;;17.00;99.90;;;;;;5033545;28;20053;-71
2022/05/18 02:56:06;;;;;;;8.52;5.55;;;17.00;99.90;;;;;;5033391;28;20654;-71
2022/05/18 02:58:36;;;;;;;9.73;6.18;;;16.90;99.90;;;;;;5033579;28;20052;-72
2022/05/18 03:01:11;;;;;;;7.70;5.25;;;16.80;99.90;;;;;;5033401;28;20087;-71
2022/05/18 03:03:37;;;;;;;8.43;5.63;;;16.80;99.90;;;;;;5033604;28;20044;-72
2022/05/18 03:06:08;;;;;;;9.05;6.57;;;16.70;99.90;;;;;;5034878;28;20155;-71
2022/05/18 03:08:36;;;;;;;9.63;6.38;;;16.70;99.90;;;;;;5034751;28;20096;-71
2022/05/18 03:11:02;;;;;;;8.00;5.50;;;16.60;99.90;;;;;;5016619;28;20034;-72
2022/05/18 03:13:28;;;;;;;9.35;6.38;;;16.60;99.90;;;;;;5033626;28;20095;-71
2022/05/18 03:15:54;;;;;;;9.30;5.78;;;16.60;99.90;;;;;;5016829;28;20073;-71
2022/05/18 03:18:20;;;;;;;9.07;6.03;;;16.60;99.90;;;;;;5034382;28;20549;-71
2022/05/18 03:23:36;;;;;;;9.10;6.10;;;16.50;99.90;;;;;;5033028;28;20045;-71
2022/05/18 03:26:12;;;;;;;7.78;5.53;;;16.40;99.90;;;;;;5032128;28;20038;-71
2022/05/18 03:28:40;;;;;;;8.60;6.25;;;16.40;99.90;;;;;;5032909;28;20053;-71
2022/05/18 03:31:08;;;;;;;11.32;6.88;;;16.30;99.90;;;;;;5033894;28;20562;-71
2022/05/18 03:33:34;;;;;;;8.27;6.65;;;16.30;99.90;;;;;;5034110;28;20037;-71
2022/05/18 03:36:00;;;;;;;9.00;6.53;;;16.30;99.90;;;;;;5065377;22;20045;-73
2022/05/18 03:38:26;;;;;;;10.57;6.88;;;16.20;99.90;;;;;;5053065;28;20049;-72
2022/05/18 03:40:52;;;;;;;10.68;7.57;;;16.20;99.90;;;;;;5052613;28;20116;-73
2022/05/18 03:43:19;;;;;;;8.65;6.80;;;16.20;99.90;;;;;;5053661;28;20043;-73
2022/05/18 03:45:46;;;;;;;12.95;7.50;;;16.10;99.90;;;;;;5051467;28;20091;-73
2022/05/18 03:48:13;;;;;;;9.07;6.80;;;16.10;99.90;;;;;;5054042;28;20083;-73
2022/05/18 03:50:41;;;;;;;9.02;6.93;;;16.10;99.90;;;;;;5052571;28;20095;-73
2022/05/18 03:53:08;;;;;;;9.95;6.78;;;16.20;99.90;;;;;;5053872;28;20041;-73
2022/05/18 03:55:34;;;;;;;13.52;7.35;;;16.20;99.90;;;;;;5053670;28;20044;-73
2022/05/18 03:58:00;;;;;;;10.45;6.72;;;16.20;99.90;;;;;;5053685;28;20049;-73
2022/05/18 04:00:25;;;;;;;8.90;7.28;;;16.20;99.90;;;;;;5053376;28;20115;-73
2022/05/18 04:02:51;;;;;;;10.43;7.63;;;16.20;99.90;;;;;;5054061;28;20118;-73
2022/05/18 04:05:20;;;;;;;10.13;7.22;;;16.20;99.90;;;;;;5053579;28;20495;-73
2022/05/18 04:07:46;;;;;;;11.77;7.78;;;16.20;99.90;;;;;;5053025;28;20403;-73
2022/05/18 04:10:12;;;;;;;10.20;7.10;;;16.30;99.90;;;;;;5053228;28;20040;-73
2022/05/18 04:12:38;;;;;;;13.45;8.05;;;16.30;99.90;;;;;;5052025;28;20127;-73
2022/05/18 04:15:04;;;;;;;8.57;6.47;;;16.30;99.90;;;;;;5053215;28;20124;-73
2022/05/18 04:17:30;;;;;;;11.10;7.80;;;16.30;99.90;;;;;;5053108;28;20064;-73
2022/05/18 04:19:56;;;;;;;8.88;7.07;;;16.30;99.90;;;;;;5053016;28;20088;-73
2022/05/18 04:22:23;;;;;;;14.45;7.55;;;16.30;99.90;;;;;;5052021;28;20053;-73
2022/05/18 04:24:50;;;;;;;13.32;7.03;;;16.30;99.90;;;;;;5052977;28;20091;-73
2022/05/18 04:27:16;;;;;;;20.08;7.80;;;16.40;99.90;;;;;;5052808;28;20069;-73
2022/05/18 04:29:41;;;;;;;13.27;7.60;;;16.40;99.90;;;;;;5051871;28;20036;-73
2022/05/18 04:32:08;;;;;;;12.02;7.63;;;16.30;99.90;;;;;;5053110;28;20037;-73
2022/05/18 04:34:34;;;;;;;10.75;7.05;;;16.40;99.90;;;;;;5053230;28;20040;-73
2022/05/18 04:36:59;;;;;;;14.27;8.48;;;16.40;99.90;;;;;;5051894;28;20056;-73
2022/05/18 04:39:25;;;;;;;9.32;6.75;;;16.40;99.90;;;;;;5052941;28;20630;-73
2022/05/18 04:41:50;;;;;;;12.50;7.57;;;16.50;99.90;;;;;;5052596;28;20037;-73
2022/05/18 04:44:16;;;;;;;9.57;8.13;;;16.50;99.90;;;;;;5052942;28;20380;-73
2022/05/18 04:46:42;;;;;;;10.00;7.60;;;16.50;99.90;;;;;;5052961;28;20099;-73
2022/05/18 04:49:09;;;;;;;11.35;8.10;;;16.60;99.90;;;;;;5052859;28;20506;-73
2022/05/18 04:51:35;;;;;;;11.05;8.00;;;16.70;99.90;;;;;;5051097;28;20055;-73
2022/05/18 04:54:01;;;;;;;9.85;7.53;;;16.80;99.90;;;;;;5052478;28;20040;-73
2022/05/18 04:56:26;;;;;;;10.68;7.25;;;17.00;99.90;;;;;;5052284;28;20044;-73
2022/05/18 04:58:53;;;;;;;12.25;7.18;;;17.10;99.90;;;;;;5052717;28;20517;-72
2022/05/18 05:01:18;;;;;;;9.55;7.03;;;17.30;99.90;;;;;;5052429;28;20052;-73
2022/05/18 05:03:45;;;;;;;11.00;7.93;;;17.40;99.90;;;;;;5052410;28;20037;-73
2022/05/18 05:06:11;;;;;;;11.65;7.35;;;17.60;99.90;;;;;;5052164;28;20072;-73
2022/05/18 05:08:37;;;;;;;11.40;7.63;;;17.80;99.90;;;;;;5052186;28;20118;-73
2022/05/18 05:11:05;;;;;;;10.45;7.30;;;18.10;99.90;;;;;;5052127;28;20445;-73
2022/05/18 05:13:32;;;;;;;13.52;8.15;;;18.30;99.90;;;;;;5052450;28;20404;-73
2022/05/18 05:16:08;;;;;;;11.02;7.43;;;18.50;99.90;;;;;;5052111;28;20033;-72
2022/05/18 05:18:34;;;;;;;11.20;7.43;;;18.70;99.90;;;;;;5052262;28;20040;-73
2022/05/18 05:21:00;;;;;;;10.95;7.70;;;18.90;99.90;;;;;;5033972;28;20045;-73
2022/05/18 05:23:27;;;;;;;12.18;7.28;;;19.10;99.90;;;;;;5052036;28;20032;-72
2022/05/18 05:25:54;;;;;;;8.65;6.93;;;19.20;99.90;;;;;;5052027;28;20094;-73
2022/05/18 05:28:20;;;;;;;8.57;6.70;;;19.50;99.90;;;;;;5052122;28;20080;-73
2022/05/18 05:30:46;;;;;;;10.88;7.43;;;19.70;99.90;;;;;;5051676;28;20380;-72
2022/05/18 05:33:11;;;;;;;8.85;7.00;;;19.90;99.90;;;;;;5050507;28;20091;-72
2022/05/18 05:35:41;;;;;;;10.93;7.78;;;19.90;99.90;;;;;;5051440;28;20546;-72
2022/05/18 05:38:11;;;;;;;13.13;7.47;;;20.10;99.90;;;;;;5051777;28;20077;-72
2022/05/18 05:40:38;;;;;;;8.73;6.80;;;20.20;99.90;;;;;;5051783;28;20086;-72
2022/05/18 05:43:08;;;;;;;10.52;7.13;;;20.30;99.90;;;;;;5050491;28;20041;-72
2022/05/18 05:45:34;;;;;;;11.30;8.10;;;20.30;99.90;;;;;;5051684;28;20563;-72
2022/05/18 05:47:59;;;;;;;12.43;7.55;;;20.50;99.90;;;;;;5050141;28;20116;-72
2022/05/18 05:50:26;;;;;;;9.73;8.02;;;20.50;99.90;;;;;;5051232;28;20037;-72
2022/05/18 05:52:52;;;;;;;12.23;8.18;;;20.80;99.90;;;;;;5051844;28;20048;-72
2022/05/18 05:55:17;;;;;;;10.48;7.45;;;20.90;99.90;;;;;;5051767;28;20052;-72
2022/05/18 05:57:43;;;;;;;10.13;7.90;;;20.80;99.90;;;;;;5051586;28;20037;-72
2022/05/18 06:00:09;;;;;;;10.13;6.88;;;20.90;99.90;;;;;;5051437;28;20390;-72
2022/05/18 06:02:34;;;;;;;12.32;7.57;;;21.10;99.90;;;;;;5051796;28;20120;-73
2022/05/18 06:05:03;;;;;;;11.35;7.43;;;21.30;99.90;;;;;;5051461;28;20048;-73
2022/05/18 06:07:30;;;;;;;13.15;8.20;;;21.60;99.30;;;;;;5051653;28;20067;-73
2022/05/18 06:09:56;;;;;;;9.90;7.40;;;21.80;98.70;;;;;;5051444;28;20037;-73
2022/05/18 06:12:23;;;;;;;10.50;7.50;;;21.80;98.10;;;;;;5051471;28;20554;-73
2022/05/18 06:14:49;;;;;;;8.10;7.18;;;21.90;97.70;;;;;;5051501;28;20059;-73
2022/05/18 06:17:15;;;;;;;11.50;7.45;;;22.10;97.30;;;;;;5051354;28;20045;-73
2022/05/18 06:19:40;;;;;;;10.32;7.97;;;22.30;96.30;;;;;;5051314;28;20123;-73
2022/05/18 06:22:06;;;;;;;11.07;7.35;;;22.30;96.10;;;;;;5051464;28;20397;-73
2022/05/18 06:24:32;;;;;;;9.45;8.00;;;22.70;95.70;;;;;;5033849;28;20155;-73
2022/05/18 06:26:58;;;;;;;11.68;7.90;;;22.70;95.40;;;;;;5051340;28;20044;-73
2022/05/18 06:29:24;;;;;;;11.32;7.85;;;22.80;94.40;;;;;;5051284;28;20640;-73
2022/05/18 06:31:50;;;;;;;8.38;6.45;;;23.00;93.70;;;;;;5049713;28;20053;-73
2022/05/18 06:34:16;;;;;;;9.43;7.28;;;23.30;93.50;;;;;;5051205;28;20064;-73
2022/05/18 06:36:42;;;;;;;13.70;7.20;;;23.30;93.20;;;;;;5050960;28;20033;-73
2022/05/18 06:39:08;;;;;;;9.98;7.47;;;23.40;92.40;;;;;;5051474;28;20041;-73
2022/05/18 06:41:35;;;;;;;13.55;7.97;;;23.40;92.50;;;;;;5051013;28;20451;-73
2022/05/18 06:44:02;;;;;;;11.07;7.20;;;23.80;91.60;;;;;;5051369;28;20041;-73
2022/05/18 06:46:30;;;;;;;10.73;7.32;;;24.00;91.00;;;;;;5050951;28;20041;-73
2022/05/18 06:48:56;;;;;;;11.05;8.00;;;24.10;90.20;;;;;;5051119;28;20515;-73
2022/05/18 06:51:25;;;;;;;9.10;7.63;;;24.40;89.90;;;;;;5051206;28;20392;-73
2022/05/18 06:53:51;;;;;;;10.65;7.50;;;24.60;87.50;;;;;;5051214;28;20717;-73
2022/05/18 06:56:19;;;;;;;11.55;6.93;;;24.60;87.20;;;;;;5050596;28;20033;-73
2022/05/18 06:58:49;;;;;;;10.13;6.78;;;24.70;86.60;;;;;;5050688;28;20388;-73
2022/05/18 07:01:15;;;;;;;10.95;7.50;;;24.80;85.40;;;;;;5053287;28;20036;-73
2022/05/18 07:03:42;;;;;;;11.82;7.72;;;24.80;85.10;;;;;;5054752;28;20052;-73
2022/05/18 07:06:07;;;;;;;11.98;8.60;;;24.80;84.80;;;;;;5053406;28;20041;-72
2022/05/18 07:08:34;;;;;;;12.95;7.80;;;24.80;84.00;;;;;;5054440;28;20090;-73
2022/05/18 07:10:59;;;;;;;9.88;7.32;;;25.30;82.50;;;;;;5054412;28;20418;-72
2022/05/18 07:13:25;;;;;;;11.30;7.15;;;25.50;82.10;;;;;;5054484;28;20033;-72
2022/05/18 07:15:50;;;;;;;9.68;7.78;;;25.70;80.10;;;;;;5053674;28;20041;-73
2022/05/18 07:18:16;;;;;;;10.23;7.45;;;25.50;80.10;;;;;;5054176;28;20033;-72
2022/05/18 07:20:42;;;;;;;15.25;7.78;;;25.70;79.10;;;;;;5054185;28;20048;-73
2022/05/18 07:23:08;;;;;;;11.40;7.38;;;25.70;78.60;;;;;;5054097;28;20037;-73
2022/05/18 07:25:34;;;;;;;10.70;7.05;;;26.10;79.00;;;;;;5054132;28;20110;-73
2022/05/18 07:28:00;;;;;;;14.43;7.57;;;26.20;76.60;;;;;;5054088;28;20514;-72
2022/05/18 07:30:26;;;;;;;7.57;6.45;;;26.30;75.60;;;;;;5053740;28;20044;-73
2022/05/18 07:32:52;;;;;;;11.15;7.05;;;26.30;75.10;;;;;;5054261;28;20033;-73
2022/05/18 07:35:18;;;;;;;9.57;6.22;;;26.30;73.50;;;;;;5053927;28;20541;-70
2022/05/18 07:37:43;;;;;;;10.15;7.45;;;26.70;72.70;;;;;;5054706;28;20103;-71
2022/05/18 07:40:09;;;;;;;10.63;6.35;;;26.70;71.80;;;;;;5053770;28;20033;-70
2022/05/18 07:42:35;;;;;;;11.05;6.57;;;26.80;71.20;;;;;;5053874;28;20069;-70
2022/05/18 07:45:01;;;;;;;10.13;5.85;;;27.00;68.50;;;;;;5053612;28;20041;-70
2022/05/18 07:47:31;;;;;;;8.73;6.15;;;27.20;68.40;;;;;;5053994;28;20036;-70
2022/05/18 07:49:57;;;;;;;9.68;6.45;;;27.50;67.40;;;;;;5053183;28;20513;-70
2022/05/18 07:52:23;;;;;;;10.30;6.32;;;27.40;67.50;;;;;;5053800;28;20048;-70
2022/05/18 07:54:50;;;;;;;7.45;6.18;;;27.60;65.90;;;;;;5053723;28;20036;-70
2022/05/18 07:57:17;;;;;;;8.32;5.93;;;27.60;65.60;;;;;;5053516;28;20041;-71
2022/05/18 07:59:42;;;;;;;10.60;6.43;;;27.80;64.00;;;;;;5053226;28;20055;-70
2022/05/18 08:02:08;;;;;;;11.63;5.93;;;27.90;64.10;;;;;;5053537;28;20033;-70
2022/05/18 08:04:33;;;;;;;7.43;5.80;;;28.20;63.80;;;;;;5053915;28;20036;-70
2022/05/18 08:06:59;;;;;;;8.52;6.55;;;28.30;62.60;;;;;;5053233;28;20041;-70
2022/05/18 08:09:25;;;;;;;9.68;5.47;;;28.40;63.10;;;;;;5053299;28;20037;-70
2022/05/18 08:17:21;;;;;;;7.40;5.20;;;28.30;61.60;;;;;;5051178;28;20096;-71
2022/05/18 08:19:46;;;;;;;8.82;5.03;;;28.30;61.70;;;;;;5053274;28;20039;-71
2022/05/18 08:22:13;;;;;;;9.68;5.15;;;28.50;62.90;;;;;;5052884;28;20469;-71
2022/05/18 08:24:38;;;;;;;6.32;3.80;;;28.70;60.40;;;;;;5052483;28;20675;-71
2022/05/18 08:27:12;;;;;;;7.22;4.75;;;28.90;59.90;;;;;;5051878;28;20044;-71
2022/05/18 08:29:38;;;;;;;5.03;4.10;;;28.90;58.60;;;;;;5053277;28;20052;-71
2022/05/18 08:32:04;;;;;;;9.93;4.82;;;29.30;57.10;;;;;;5052896;28;20041;-71
2022/05/18 08:34:30;;;;;;;5.68;4.10;;;29.40;56.00;;;;;;5052463;28;20045;-71
2022/05/18 08:36:56;;;;;;;7.43;4.78;;;29.60;58.10;;;;;;5052056;28;20037;-71
2022/05/18 08:39:22;;;;;;;6.22;4.28;;;29.50;55.90;;;;;;5052722;28;20123;-71
2022/05/18 08:41:49;;;;;;;6.60;4.72;;;29.50;56.80;;;;;;5052766;28;20041;-71
2022/05/18 08:44:36;;;;;;;8.15;4.75;;;29.60;57.30;;;;;;5052788;28;20033;-71
2022/05/18 08:47:16;;;;;;;9.02;4.35;;;29.40;56.70;;;;;;5051574;28;20171;-71
2022/05/18 08:49:58;;;;;;;6.60;4.00;;;29.50;57.20;;;;;;5052617;28;20045;-70
2022/05/18 08:52:51;;;;;;;6.60;3.33;;;29.60;56.30;;;;;;5051241;28;20048;-71
2022/05/18 08:55:35;;;;;;;6.15;3.72;;;29.80;58.00;;;;;;5052566;28;20048;-71
2022/05/18 08:58:01;;;;;;;6.95;4.22;;;29.70;56.40;;;;;;5052435;28;20037;-71
2022/05/18 09:00:38;;;;;;;4.55;3.40;;;29.10;56.00;;;;;;5051177;28;20037;-71
2022/05/18 09:03:15;;;;;;;6.65;3.72;;;29.30;57.10;;;;;;5051166;28;20494;-71
2022/05/18 09:06:18;;;;;;;6.88;3.58;;;29.10;55.10;;;;;;5051248;28;20410;-71
2022/05/18 09:10:12;;;;;;;;;;;29.00;55.60;;;;;;5053011;28;20040;-71
2022/05/18 09:11:33;;;;;;;5.72;2.83;;;28.90;57.90;;;;;;5050852;28;19924;-71
2022/05/18 09:13:58;;;;;;;5.28;3.33;;;29.10;55.60;;;;;;5052349;28;20082;-71
2022/05/18 09:17:19;;;;;;;7.78;3.97;;;29.00;54.20;;;;;;5051987;28;20041;-71
2022/05/18 09:19:50;;;;;;;5.50;3.55;;;28.90;53.00;;;;;;5035562;28;20053;-71
2022/05/18 09:22:28;;;;;;;5.60;3.30;;;28.90;52.90;;;;;;5051463;28;20588;-71
2022/05/18 09:25:00;;;;;;;4.97;3.08;;;29.30;54.10;;;;;;5051951;28;20457;-71
2022/05/18 09:28:02;;;;;;;5.23;3.20;;;29.40;53.50;;;;;;5052207;28;20045;-72
2022/05/18 09:30:39;;;;;;;5.88;3.72;;;29.20;52.30;;;;;;5051728;28;20041;-71
2022/05/18 09:33:29;;;;;;;4.25;3.20;;;28.90;51.20;;;;;;5051919;28;20049;-71
2022/05/18 09:36:10;;;;;;;8.18;3.90;;;29.00;53.20;;;;;;5074159;22;20045;-73
2022/05/18 09:38:59;;;;;;;5.50;3.53;;;29.10;52.40;;;;;;5051714;28;20484;-73
2022/05/18 09:41:31;;;;;;;5.95;3.58;;;29.20;53.10;;;;;;5049564;28;20533;-73
2022/05/18 09:44:00;;;;;;;10.85;3.45;;;29.50;54.10;;;;;;5044722;28;20040;-73
2022/05/18 09:46:28;;;;;;;9.15;4.07;;;29.70;53.10;;;;;;5031814;28;20041;-73
2022/05/18 09:49:07;;;;;;;7.82;4.20;;;29.70;52.30;;;;;;5051666;28;20144;-73
2022/05/18 09:51:33;;;;;;;9.43;3.58;;;29.50;52.40;;;;;;5050111;28;20537;-73
2022/05/18 09:53:59;;;;;;;7.18;4.90;;;29.60;54.20;;;;;;5050614;28;20049;-73
2022/05/18 09:56:30;;;;;;;6.60;4.57;;;29.20;53.20;;;;;;5050121;28;20029;-72
2022/05/18 09:59:01;;;;;;;6.75;4.30;;;29.10;52.50;;;;;;5033631;28;20045;-72
2022/05/18 10:10:04;;;;;;;8.13;4.10;;;29.00;54.80;;;;;;5050210;28;19916;-73
2022/05/18 10:12:41;;;;;;;7.72;3.97;;;29.30;53.30;;;;;;5050138;28;20048;-73
2022/05/18 10:15:19;;;;;;;8.60;4.15;;;29.50;54.00;;;;;;5050088;28;20091;-73
2022/05/18 10:17:54;;;;;;;7.90;3.28;;;29.60;54.10;;;;;;5033476;28;20037;-73
2022/05/18 10:20:26;;;;;;;4.07;3.10;;;29.30;54.30;;;;;;5033621;28;20380;-73
2022/05/18 10:22:52;;;;;;;9.35;3.70;;;29.40;55.40;;;;;;5051433;28;20033;-73
2022/05/18 10:25:32;;;;;;;5.78;3.65;;;29.20;54.60;;;;;;5049973;28;20051;-73
2022/05/18 10:28:03;;;;;;;7.80;3.15;;;28.90;53.50;;;;;;5049965;28;20045;-73
2022/05/18 10:30:32;;;;;;;6.53;3.83;;;29.10;56.60;;;;;;5049939;28;20041;-73
2022/05/18 10:33:02;;;;;;;6.72;3.78;;;29.10;54.50;;;;;;5049980;28;20041;-73
2022/05/18 10:35:44;;;;;;;7.57;3.92;;;28.90;54.90;;;;;;5052070;28;20510;-73
2022/05/18 10:38:23;;;;;;;3.50;3.17;;;28.90;54.60;;;;;;5054177;28;20422;-73
2022/05/18 10:40:53;;;;;;;7.03;3.80;;;28.90;55.40;;;;;;5053374;28;20037;-73
2022/05/18 10:43:42;;;;;;;7.38;4.13;;;28.80;55.00;;;;;;5053576;28;20076;-73
2022/05/18 10:46:11;;;;;;;5.60;3.97;;;28.80;55.80;;;;;;5053527;28;20688;-73
2022/05/18 10:48:41;;;;;;;4.85;3.50;;;28.70;54.30;;;;;;5036980;28;20095;-73
2022/05/18 10:51:11;;;;;;;7.93;3.63;;;28.60;54.00;;;;;;5054783;28;20068;-73
2022/05/18 10:53:43;;;;;;;7.35;4.50;;;28.70;56.70;;;;;;5037240;28;20128;-73
2022/05/18 10:56:13;;;;;;;6.97;5.18;;;28.80;55.10;;;;;;5053399;28;20044;-73
2022/05/18 10:58:51;;;;;;;10.27;5.22;;;28.70;55.10;;;;;;5053388;28;20044;-73
2022/05/18 11:01:27;;;;;;;10.57;5.72;;;28.70;55.70;;;;;;5054572;28;20043;-73
2022/05/18 11:04:03;;;;;;;8.23;4.82;;;28.60;55.10;;;;;;5054785;28;20178;-73
2022/05/18 11:06:31;;;;;;;9.10;5.03;;;28.50;55.70;;;;;;5054494;28;20040;-73
2022/05/18 11:09:00;;;;;;;8.55;4.55;;;28.60;56.20;;;;;;5053378;28;20127;-73
2022/05/18 11:11:52;;;;;;;8.13;4.95;;;28.60;57.50;;;;;;5054189;28;20546;-72
2022/05/18 11:14:32;;;;;;;6.97;5.18;;;28.60;57.80;;;;;;5024981;28;20049;-73
2022/05/18 11:17:19;;;;;;;8.07;5.40;;;28.50;56.00;;;;;;5052280;28;20424;-72
2022/05/18 11:20:23;;;;;;;8.23;3.95;;;28.70;55.70;;;;;;5051491;28;20403;-72
2022/05/18 11:22:58;;;;;;;8.30;4.10;;;28.80;56.40;;;;;;5051291;28;20029;-73
2022/05/18 11:25:29;;;;;;;11.95;4.68;;;29.00;56.40;;;;;;5050410;28;20041;-73
2022/05/18 11:28:44;;;;;;;5.22;4.25;;;28.90;57.00;;;;;;5052268;28;20045;-73
2022/05/18 11:31:29;;;;;;;8.32;5.57;;;28.90;58.40;;;;;;5032416;28;20071;-73
2022/05/18 11:34:25;;;;;;;6.15;4.93;;;28.70;58.70;;;;;;5051884;28;20067;-72
2022/05/18 11:37:27;;;;;;;10.88;7.00;;;28.90;58.80;;;;;;5004418;28;20116;-72
2022/05/18 11:40:03;;;;;;;11.77;6.53;;;28.90;56.60;;;;;;5052688;28;20036;-72
2022/05/18 11:42:44;;;;;;;11.60;7.00;;;28.80;59.40;;;;;;5052553;28;20041;-72
2022/05/18 11:45:49;;;;;;;14.35;7.30;;;28.60;55.60;;;;;;5052540;28;20033;-72
2022/05/18 11:48:30;;;;;;;9.93;6.03;;;28.40;58.10;;;;;;5052559;28;20045;-72
2022/05/18 11:51:16;;;;;;;10.75;6.53;;;28.20;58.90;;;;;;5052236;28;20040;-72
2022/05/18 11:54:04;;;;;;;9.13;6.78;;;28.10;59.00;;;;;;5052411;28;20090;-72
2022/05/18 11:56:50;;;;;;;10.27;6.72;;;28.10;59.10;;;;;;5052360;28;20041;-72
2022/05/18 11:59:44;;;;;;;14.15;7.60;;;28.00;59.90;;;;;;5035815;28;20037;-72
2022/05/18 12:02:34;;;;;;;9.23;6.32;;;28.00;61.00;;;;;;5052478;28;20045;-72
2022/05/18 12:05:24;;;;;;;12.20;6.57;;;28.10;62.60;;;;;;5052417;28;20047;-72
2022/05/18 12:08:26;;;;;;;9.27;5.63;;;27.90;61.30;;;;;;5035704;28;20041;-72
2022/05/18 12:11:14;;;;;;;9.10;5.68;;;27.80;61.00;;;;;;5033361;28;20048;-71
2022/05/18 12:14:17;;;;;;;9.27;6.88;;;27.80;63.20;;;;;;5032259;28;20172;-72
2022/05/18 12:17:06;;;;;;;10.15;7.28;;;27.70;62.50;;;;;;5031743;28;20526;-72
2022/05/18 12:19:53;;;;;;;15.82;8.07;;;27.60;63.10;;;;;;5033385;28;20044;-72
2022/05/18 12:22:35;;;;;;;10.40;6.78;;;27.40;61.90;;;;;;5033101;28;20033;-72
2022/05/18 12:25:03;;;;;;;9.38;6.68;;;27.40;64.40;;;;;;5033363;28;20048;-73
2022/05/18 12:27:29;;;;;;;16.27;7.55;;;27.40;64.10;;;;;;5031658;28;20048;-72
2022/05/18 12:29:58;;;;;;;10.63;7.22;;;27.50;63.70;;;;;;5031507;28;20052;-72
2022/05/18 12:32:25;;;;;;;13.57;6.40;;;27.40;62.90;;;;;;5031660;28;20136;-73
2022/05/18 12:35:11;;;;;;;11.32;5.55;;;27.40;63.70;;;;;;5031920;28;20033;-73
2022/05/18 12:37:52;;;;;;;10.23;5.95;;;27.30;64.40;;;;;;5031432;28;20041;-72
2022/05/18 12:40:33;;;;;;;11.95;5.50;;;27.20;65.30;;;;;;5014827;28;20037;-73
2022/05/18 12:43:13;;;;;;;9.63;5.80;;;27.20;65.30;;;;;;5031368;28;20491;-73
2022/05/18 12:45:46;;;;;;;7.47;4.90;;;27.20;63.90;;;;;;5031286;28;20044;-73
2022/05/18 12:48:36;;;;;;;10.38;4.47;;;27.10;63.70;;;;;;5031456;28;20042;-72
2022/05/18 12:51:11;;;;;;;7.00;4.53;;;27.10;64.50;;;;;;5014413;28;20041;-73
2022/05/18 12:54:05;;;;;;;7.80;4.50;;;27.10;63.70;;;;;;5031266;28;20128;-72
2022/05/18 12:56:36;;;;;;;7.28;5.00;;;27.20;65.60;;;;;;5031306;28;20049;-73
2022/05/18 12:59:24;;;;;;;9.13;5.55;;;27.20;64.40;;;;;;5030924;28;20423;-73
2022/05/18 13:02:04;;;;;;;8.35;5.72;;;27.10;65.10;;;;;;5030913;28;20176;-73
2022/05/18 13:04:46;;;;;;;8.73;4.20;;;27.10;65.50;;;;;;5031565;28;20045;-73
2022/05/18 13:07:22;;;;;;;6.57;4.03;;;27.20;68.40;;;;;;5032537;28;20048;-72
2022/05/18 13:09:48;;;;;;;8.02;5.35;;;27.30;69.60;;;;;;5032266;28;20381;-72
2022/05/18 13:12:23;;;;;;;9.13;5.05;;;27.40;67.80;;;;;;5032252;28;20037;-72
2022/05/18 13:15:18;;;;;;;8.07;4.95;;;27.30;67.70;;;;;;5031088;28;20049;-72
2022/05/18 13:17:50;;;;;;;8.80;5.45;;;27.20;66.20;;;;;;5032370;28;20474;-72
2022/05/18 13:20:25;;;;;;;8.90;5.80;;;27.20;66.40;;;;;;5032037;28;20038;-72